Time;durP1;ratioP1;P1;durP2;ratioP2;P2;SDS_P1;SDS_P2;PMS_P1;PMS_P2;Temp;Humidity;BMP_temperature;BMP_pressure;BME280_temperature;BME280_humidity;BME280_pressure;Samples;Min_cycle;Max_cycle;Signal;HPM_P1;HPM_P2
2023/07/20 00:01:17;;;;;;;4.28;2.25;;;;;;;16.88;91.17;101121.53;5002673;28;20116;-70
2023/07/20 00:03:43;;;;;;;5.10;2.30;;;;;;;16.86;91.40;101120.13;4988487;28;20033;-70
2023/07/20 00:06:09;;;;;;;3.85;2.22;;;;;;;16.84;91.53;101120.31;5002118;28;20045;-70
2023/07/20 00:08:34;;;;;;;5.10;2.13;;;;;;;16.82;91.16;101117.06;5002917;28;20593;-70
2023/07/20 00:10:59;;;;;;;5.32;2.28;;;;;;;16.80;91.50;101113.81;4987557;28;20089;-70
2023/07/20 00:13:25;;;;;;;4.45;1.95;;;;;;;16.79;91.48;101119.22;5004317;28;20026;-70
2023/07/20 00:15:51;;;;;;;3.55;2.42;;;;;;;16.80;91.49;101113.81;5003170;28;20041;-70
2023/07/20 00:18:17;;;;;;;5.93;2.30;;;;;;;16.80;91.60;101113.81;5001737;28;20216;-70
2023/07/20 00:20:42;;;;;;;4.88;2.63;;;;;;;16.79;91.27;101109.56;4999045;28;20027;-70
2023/07/20 00:23:08;;;;;;;4.45;2.25;;;;;;;16.76;91.42;101112.53;5004910;28;20377;-70
2023/07/20 00:25:33;;;;;;;6.28;2.67;;;;;;;16.69;91.84;101116.94;4988338;28;20966;-71
2023/07/20 00:27:59;;;;;;;5.32;2.45;;;;;;;16.67;92.03;101121.53;5006536;28;20404;-70
2023/07/20 00:30:25;;;;;;;4.32;2.45;;;;;;;16.62;92.39;101123.91;5002604;28;20395;-71
2023/07/20 00:32:50;;;;;;;7.70;2.45;;;;;;;16.61;92.81;101124.91;5004906;28;20037;-70
2023/07/20 00:35:16;;;;;;;3.42;2.35;;;;;;;16.59;93.02;101119.84;5010516;28;20475;-70
2023/07/20 00:37:41;;;;;;;5.82;2.25;;;;;;;16.56;93.52;101128.09;5007010;28;20034;-70
2023/07/20 00:40:07;;;;;;;4.43;2.10;;;;;;;16.52;93.76;101132.91;5008531;28;20547;-71
2023/07/20 00:42:33;;;;;;;4.13;2.30;;;;;;;16.46;94.09;101128.41;5000891;28;20038;-70
2023/07/20 00:44:59;;;;;;;6.72;2.80;;;;;;;16.45;94.33;101118.94;5007397;28;20045;-70
2023/07/20 00:47:24;;;;;;;5.20;2.97;;;;;;;16.46;94.54;101128.41;5003952;28;20041;-70
2023/07/20 00:49:52;;;;;;;4.35;2.45;;;;;;;16.48;94.77;101129.03;4996869;28;20701;-70
2023/07/20 00:52:20;;;;;;;4.65;2.33;;;;;;;16.50;94.90;101123.59;4998316;28;20046;-70
2023/07/20 00:54:47;;;;;;;3.17;2.22;;;;;;;16.52;94.90;101122.44;5016046;28;20038;-70
2023/07/20 00:57:15;;;;;;;3.03;2.28;;;;;;;16.53;94.68;101124.03;4999393;28;20587;-70
2023/07/20 00:59:40;;;;;;;4.10;2.13;;;;;;;16.54;94.31;101117.00;5021688;28;20061;-71
2023/07/20 01:02:06;;;;;;;5.88;2.47;;;;;;;16.51;94.36;101120.78;5007569;28;20037;-70
2023/07/20 01:04:32;;;;;;;4.72;2.45;;;;;;;16.47;94.77;101116.94;5007712;28;20041;-71
2023/07/20 01:07:08;;;;;;;4.25;1.90;;;;;;;16.42;95.42;101115.88;5004729;28;20034;-70
2023/07/20 01:09:43;;;;;;;3.80;2.25;;;;;;;16.41;95.45;101120.31;5002889;28;20037;-70
2023/07/20 01:12:21;;;;;;;3.55;2.33;;;;;;;16.38;95.70;101118.06;5006478;28;20149;-70
2023/07/20 01:14:47;;;;;;;4.15;2.70;;;;;;;16.39;95.60;101116.22;5012819;28;20168;-70
2023/07/20 01:17:13;;;;;;;5.82;3.10;;;;;;;16.39;95.48;101111.84;5008055;28;20392;-70
2023/07/20 01:19:39;;;;;;;4.53;2.38;;;;;;;16.40;95.59;101113.44;5003785;28;20558;-70
2023/07/20 01:22:35;;;;;;;5.00;2.70;;;;;;;16.39;95.33;101117.06;5009182;28;20037;-70
2023/07/20 01:25:23;;;;;;;7.13;3.00;;;;;;;16.38;95.45;101115.44;5008507;28;20072;-70
2023/07/20 01:28:11;;;;;;;3.83;2.65;;;;;;;16.39;95.60;101118.84;5006142;28;20046;-71
2023/07/20 01:30:42;;;;;;;6.35;2.72;;;;;;;16.40;95.51;101117.88;5005883;28;20030;-70
2023/07/20 01:33:09;;;;;;;8.63;2.97;;;;;;;16.35;95.67;101113.22;5010467;28;20512;-70
2023/07/20 01:35:36;;;;;;;6.18;3.40;;;;;;;16.29;96.20;101109.53;5014907;28;20120;-70
2023/07/20 01:38:03;;;;;;;7.35;2.85;;;;;;;16.27;96.76;101110.69;5011856;28;20131;-71
2023/07/20 01:40:29;;;;;;;6.88;2.78;;;;;;;16.25;97.25;101104.84;5010240;28;20372;-70
2023/07/20 01:42:55;;;;;;;5.45;2.97;;;;;;;16.23;97.34;101106.84;5006585;28;20033;-70
2023/07/20 01:45:20;;;;;;;8.73;2.90;;;;;;;16.23;97.29;101106.84;4999463;28;20960;-70
2023/07/20 01:47:45;;;;;;;6.65;2.75;;;;;;;16.23;97.45;101099.78;5006544;28;20038;-71
2023/07/20 01:50:11;;;;;;;4.10;2.47;;;;;;;16.20;97.65;101102.78;5012816;28;20061;-70
2023/07/20 01:52:37;;;;;;;3.92;2.38;;;;;;;16.19;97.85;101105.59;5007617;28;20045;-70
2023/07/20 01:55:04;;;;;;;6.30;2.92;;;;;;;16.18;97.87;101111.81;5006682;28;20027;-70
2023/07/20 01:57:30;;;;;;;5.15;2.63;;;;;;;16.14;98.03;101103.50;4994035;28;20076;-70
2023/07/20 01:59:56;;;;;;;5.78;2.70;;;;;;;16.12;98.24;101101.09;5007000;28;20041;-70
2023/07/20 02:02:26;;;;;;;5.18;2.70;;;;;;;16.08;98.43;101097.22;5011527;28;20511;-70
2023/07/20 02:04:51;;;;;;;4.38;3.03;;;;;;;16.11;98.10;101102.09;5027101;28;20037;-70
2023/07/20 02:07:17;;;;;;;6.88;2.85;;;;;;;16.04;98.68;101103.00;5008759;28;20038;-70
2023/07/20 02:09:42;;;;;;;4.13;2.92;;;;;;;16.04;99.27;101108.25;5004123;28;21791;-70
2023/07/20 02:12:08;;;;;;;5.22;3.17;;;;;;;16.03;99.25;101111.84;5002448;28;20069;-70
2023/07/20 02:14:33;;;;;;;5.75;3.13;;;;;;;15.99;99.92;101108.78;5009649;28;20056;-70
2023/07/20 02:17:00;;;;;;;4.85;3.22;;;;;;;15.94;100.00;101108.53;5008526;28;20960;-70
2023/07/20 02:19:28;;;;;;;6.35;3.22;;;;;;;15.92;100.00;101106.09;5011019;28;20033;-71
2023/07/20 02:21:53;;;;;;;6.50;2.97;;;;;;;15.91;100.00;101108.91;4992895;28;20034;-69
2023/07/20 02:24:19;;;;;;;9.35;3.90;;;;;;;15.82;100.00;101107.38;5010816;28;20041;-70
2023/07/20 02:26:44;;;;;;;5.00;3.13;;;;;;;15.79;100.00;101113.00;5010172;28;20045;-70
2023/07/20 02:29:13;;;;;;;8.15;2.95;;;;;;;15.79;100.00;101105.16;5025371;28;20041;-70
2023/07/20 02:31:39;;;;;;;4.38;2.85;;;;;;;15.85;100.00;101112.25;4990154;28;20093;-70
2023/07/20 02:34:08;;;;;;;4.95;3.13;;;;;;;15.86;100.00;101103.41;5021420;28;20037;-70
2023/07/20 02:36:34;;;;;;;6.68;3.50;;;;;;;15.80;100.00;101107.56;4993044;28;20041;-71
2023/07/20 02:39:00;;;;;;;4.60;3.08;;;;;;;15.77;100.00;101103.50;5013515;28;20652;-70
2023/07/20 02:41:26;;;;;;;6.18;2.90;;;;;;;15.71;100.00;101108.66;5006817;28;20077;-70
2023/07/20 02:43:52;;;;;;;6.93;2.83;;;;;;;15.73;100.00;101104.88;5008047;28;20026;-71
2023/07/20 02:46:17;;;;;;;5.40;3.38;;;;;;;15.64;100.00;101107.75;5007718;28;20391;-70
2023/07/20 02:48:43;;;;;;;14.15;4.40;;;;;;;15.65;100.00;101102.34;5006688;28;20038;-70
2023/07/20 02:51:09;;;;;;;5.93;3.22;;;;;;;15.60;100.00;101104.69;5007563;28;20458;-70
2023/07/20 02:53:34;;;;;;;8.68;3.67;;;;;;;15.58;100.00;101109.28;5003633;28;20443;-70
2023/07/20 02:56:00;;;;;;;5.97;2.92;;;;;;;15.56;100.00;101106.84;5003720;28;20042;-70
2023/07/20 02:58:25;;;;;;;6.13;3.50;;;;;;;15.61;100.00;101113.31;5005659;28;20022;-70
2023/07/20 03:00:51;;;;;;;7.85;3.50;;;;;;;15.60;100.00;101114.34;5004410;28;20480;-70
2023/07/20 03:03:16;;;;;;;8.63;4.43;;;;;;;15.53;100.00;101115.03;5004299;28;20038;-70
2023/07/20 03:05:42;;;;;;;6.53;3.55;;;;;;;15.47;100.00;101125.41;5007026;28;20033;-70
2023/07/20 03:08:08;;;;;;;5.53;3.45;;;;;;;15.48;100.00;101129.63;5005241;28;20672;-70
2023/07/20 03:10:39;;;;;;;8.52;3.70;;;;;;;15.51;100.00;101124.06;5004466;28;20040;-70
2023/07/20 03:13:04;;;;;;;8.45;3.97;;;;;;;15.46;100.00;101121.97;5005732;28;20069;-70
2023/07/20 03:15:31;;;;;;;6.53;3.88;;;;;;;15.45;100.00;101125.59;5002748;28;20582;-70
2023/07/20 03:17:58;;;;;;;8.93;4.10;;;;;;;15.46;100.00;101129.00;5003895;28;20050;-70
2023/07/20 03:20:24;;;;;;;9.40;4.05;;;;;;;15.45;100.00;101135.25;5003728;28;21459;-71
2023/07/20 03:22:50;;;;;;;11.35;4.07;;;;;;;15.44;100.00;101138.81;4986102;28;20080;-70
2023/07/20 03:25:15;;;;;;;5.47;3.33;;;;;;;15.45;100.00;101145.69;5006114;28;20136;-70
2023/07/20 03:27:41;;;;;;;8.40;4.13;;;;;;;15.49;100.00;101141.72;4991590;28;20134;-70
2023/07/20 03:30:09;;;;;;;7.38;3.90;;;;;;;15.48;100.00;101129.63;5007371;28;20052;-71
2023/07/20 03:32:35;;;;;;;8.63;3.55;;;;;;;15.48;100.00;101138.31;5004658;28;20042;-70
2023/07/20 03:35:01;;;;;;;9.70;4.15;;;;;;;15.50;100.00;101136.31;5007819;28;20033;-70
2023/07/20 03:37:27;;;;;;;11.13;4.03;;;;;;;15.60;100.00;101138.66;5011428;28;20099;-70
2023/07/20 03:39:52;;;;;;;6.07;3.80;;;;;;;15.58;100.00;101138.03;5005142;28;20079;-70
2023/07/20 03:42:18;;;;;;;10.85;4.43;;;;;;;15.60;100.00;101130.81;5003847;28;20057;-70
2023/07/20 03:44:43;;;;;;;9.27;3.97;;;;;;;15.62;100.00;101141.09;5008559;28;20025;-70
2023/07/20 03:47:09;;;;;;;6.65;3.90;;;;;;;15.57;100.00;101149.47;5009822;28;20675;-70
2023/07/20 03:49:35;;;;;;;5.60;3.60;;;;;;;15.54;100.00;101142.81;5005225;28;20030;-70
2023/07/20 03:52:03;;;;;;;8.25;3.92;;;;;;;15.55;100.00;101148.84;4987671;28;20068;-70
2023/07/20 03:54:29;;;;;;;12.55;5.25;;;;;;;15.56;100.00;101146.03;5006669;28;20035;-70
2023/07/20 03:56:54;;;;;;;9.25;4.07;;;;;;;15.59;100.00;101147.47;5003218;28;20037;-70
2023/07/20 03:59:20;;;;;;;10.48;4.00;;;;;;;15.59;100.00;101160.53;5006741;28;20029;-70
2023/07/20 04:01:46;;;;;;;18.23;4.22;;;;;;;15.66;100.00;101161.44;5001977;28;20088;-70
2023/07/20 04:04:11;;;;;;;9.00;4.30;;;;;;;15.72;100.00;101160.72;5006132;28;20033;-70
2023/07/20 04:06:37;;;;;;;8.05;3.75;;;;;;;15.70;100.00;101151.44;5003446;28;20573;-70
2023/07/20 04:09:04;;;;;;;12.15;4.93;;;;;;;15.71;100.00;101156.50;5004225;28;20145;-70
2023/07/20 04:11:30;;;;;;;9.45;4.72;;;;;;;15.72;100.00;101158.09;5016292;28;20129;-70
2023/07/20 04:13:56;;;;;;;11.27;5.47;;;;;;;15.75;100.00;101162.22;5006712;28;20076;-70
2023/07/20 04:16:22;;;;;;;12.35;5.05;;;;;;;15.80;100.00;101161.66;5002274;28;20033;-70
2023/07/20 04:18:47;;;;;;;10.65;5.20;;;;;;;15.78;100.00;101164.44;5003112;28;20157;-70
2023/07/20 04:21:13;;;;;;;9.23;5.10;;;;;;;15.80;100.00;101162.47;5002524;28;20720;-70
2023/07/20 04:23:38;;;;;;;10.13;5.63;;;;;;;15.83;100.00;101164.72;5003904;28;20049;-70
2023/07/20 04:26:05;;;;;;;11.48;6.03;;;;;;;15.89;100.00;101164.00;4987716;28;20041;-70
2023/07/20 04:28:32;;;;;;;11.00;6.10;;;;;;;15.88;100.00;101164.16;5003422;28;20064;-70
2023/07/20 04:31:12;;;;;;;18.35;7.10;;;;;;;15.85;100.00;101167.97;4997624;28;20117;-70
2023/07/20 04:33:39;;;;;;;16.17;6.13;;;;;;;15.90;100.00;101170.06;5031149;23;20038;-70
2023/07/20 04:36:05;;;;;;;12.43;6.88;;;;;;;15.89;100.00;101171.03;5020958;28;20061;-70
2023/07/20 04:38:34;;;;;;;14.88;7.00;;;;;;;15.92;100.00;101175.91;5026504;28;20033;-70
2023/07/20 04:41:16;;;;;;;14.80;7.22;;;;;;;15.93;100.00;101177.50;5020993;28;20124;-70
2023/07/20 04:43:45;;;;;;;15.10;8.70;;;;;;;15.96;100.00;101185.81;5022745;28;20029;-70
2023/07/20 04:46:12;;;;;;;15.88;8.52;;;;;;;16.02;100.00;101181.66;5023618;28;20041;-70
2023/07/20 04:48:38;;;;;;;18.02;9.15;;;;;;;15.94;100.00;101179.94;5021534;28;20380;-70
2023/07/20 04:51:03;;;;;;;21.00;9.10;;;;;;;16.02;100.00;101186.09;5001879;28;20586;-70
2023/07/20 04:53:30;;;;;;;22.55;10.85;;;;;;;15.99;100.00;101184.63;5016203;28;20030;-70
2023/07/20 04:55:56;;;;;;;17.20;8.80;;;;;;;16.04;100.00;101184.09;5007241;28;20021;-71
2023/07/20 04:58:24;;;;;;;17.35;10.55;;;;;;;16.04;100.00;101184.88;5022146;28;20403;-70
2023/07/20 05:00:51;;;;;;;14.98;9.82;;;;;;;16.10;100.00;101180.72;5024520;28;20633;-71
2023/07/20 05:03:17;;;;;;;17.67;9.55;;;;;;;16.15;100.00;101179.19;5022395;28;20021;-70
2023/07/20 05:05:43;;;;;;;16.27;9.45;;;;;;;16.27;100.00;101181.34;5015369;28;20030;-68
2023/07/20 05:08:09;;;;;;;16.48;9.95;;;;;;;16.44;100.00;101187.97;5022603;28;20079;-68
2023/07/20 05:10:34;;;;;;;17.15;10.45;;;;;;;16.48;100.00;101175.31;5020535;28;20103;-68
2023/07/20 05:13:00;;;;;;;18.30;10.45;;;;;;;16.45;100.00;101178.31;5021613;28;20249;-68
2023/07/20 05:15:26;;;;;;;17.75;10.00;;;;;;;16.41;100.00;101177.88;5039479;28;20037;-68
2023/07/20 05:17:52;;;;;;;20.92;11.60;;;;;;;16.39;100.00;101182.50;5022016;28;20522;-67
2023/07/20 05:20:19;;;;;;;22.58;12.10;;;;;;;16.53;100.00;101186.84;5001025;28;20040;-67
2023/07/20 05:22:45;;;;;;;20.80;11.40;;;;;;;16.46;100.00;101185.16;5004584;28;20496;-68
2023/07/20 05:25:11;;;;;;;18.00;11.13;;;;;;;16.50;100.00;101184.63;5008003;28;20036;-68
2023/07/20 05:27:37;;;;;;;16.90;10.98;;;;;;;16.48;100.00;101189.22;5022808;28;20112;-68
2023/07/20 05:30:03;;;;;;;20.50;11.18;;;;;;;16.53;100.00;101189.47;5020238;28;20029;-67
2023/07/20 05:32:28;;;;;;;16.52;10.20;;;;;;;16.55;100.00;101184.06;5037764;28;20507;-70
2023/07/20 05:34:54;;;;;;;20.08;11.27;;;;;;;16.52;100.00;101194.91;5025302;28;20049;-70
2023/07/20 05:37:19;;;;;;;20.77;11.23;;;;;;;16.39;100.00;101197.34;5019849;28;20045;-70
2023/07/20 05:39:45;;;;;;;17.58;10.90;;;;;;;16.40;100.00;101199.00;5022237;28;20557;-70
2023/07/20 05:42:10;;;;;;;19.52;11.32;;;;;;;16.41;100.00;101193.56;5021137;28;20049;-70
2023/07/20 05:44:36;;;;;;;18.30;10.57;;;;;;;16.48;100.00;101202.31;5023498;28;20026;-70
2023/07/20 05:47:02;;;;;;;17.05;10.15;;;;;;;16.51;100.00;101195.91;5022146;28;20084;-70
2023/07/20 05:49:28;;;;;;;18.33;10.68;;;;;;;16.55;100.00;101205.00;5022388;28;20037;-70
2023/07/20 05:51:55;;;;;;;15.45;9.88;;;;;;;16.74;100.00;101193.09;5020540;28;20030;-70
2023/07/20 05:54:21;;;;;;;14.55;9.60;;;;;;;16.95;100.00;101194.13;5020248;28;20037;-70
2023/07/20 05:56:46;;;;;;;15.50;9.40;;;;;;;17.06;98.71;101202.28;5023359;28;20523;-69
2023/07/20 05:59:12;;;;;;;14.80;8.65;;;;;;;17.15;98.70;101197.72;5023477;28;20033;-70
2023/07/20 06:01:38;;;;;;;15.40;8.93;;;;;;;17.18;96.94;101197.34;5018048;28;20103;-70
2023/07/20 06:04:03;;;;;;;12.65;7.93;;;;;;;17.45;95.37;101200.16;5020126;28;20756;-70
2023/07/20 06:06:29;;;;;;;11.32;6.65;;;;;;;17.56;92.44;101196.19;5023322;28;20079;-70
2023/07/20 06:08:54;;;;;;;9.75;5.53;;;;;;;17.73;91.29;101192.25;5022115;28;20049;-70
2023/07/20 06:11:20;;;;;;;10.32;6.30;;;;;;;17.75;89.94;101200.75;5021452;28;20041;-70
2023/07/20 06:13:46;;;;;;;11.02;5.97;;;;;;;17.81;89.46;101199.94;5019156;28;20042;-70
2023/07/20 06:16:11;;;;;;;10.73;6.53;;;;;;;17.92;88.93;101201.25;5022212;28;20043;-70
2023/07/20 06:18:36;;;;;;;8.57;5.18;;;;;;;18.07;89.29;101203.75;5042779;28;20040;-70
2023/07/20 06:21:02;;;;;;;9.50;6.03;;;;;;;18.04;88.87;101202.31;5026761;28;20518;-70
2023/07/20 06:23:28;;;;;;;12.30;6.38;;;;;;;17.78;87.87;101210.84;5026354;28;20034;-70
2023/07/20 06:25:53;;;;;;;9.65;5.72;;;;;;;17.66;88.91;101215.81;5028417;28;20475;-70
2023/07/20 06:28:19;;;;;;;8.45;5.45;;;;;;;17.49;88.91;101217.13;5024995;28;20030;-70
2023/07/20 06:30:44;;;;;;;9.02;5.65;;;;;;;17.46;89.86;101213.06;5024649;28;20387;-71
2023/07/20 06:33:10;;;;;;;10.70;4.85;;;;;;;17.44;90.83;101215.06;5028472;28;20067;-70
2023/07/20 06:35:35;;;;;;;9.80;5.40;;;;;;;17.46;91.07;101222.72;5030361;28;20407;-70
2023/07/20 06:38:03;;;;;;;10.40;5.28;;;;;;;17.74;90.29;101216.66;5025518;28;20037;-70
2023/07/20 06:40:31;;;;;;;10.20;5.20;;;;;;;18.29;87.10;101209.69;5028970;28;20037;-70
2023/07/20 06:42:57;;;;;;;11.55;5.40;;;;;;;18.86;84.37;101210.25;5026001;28;20518;-70
2023/07/20 06:45:23;;;;;;;9.23;4.68;;;;;;;19.24;81.37;101217.53;5022515;28;20455;-70
2023/07/20 06:47:49;;;;;;;24.50;12.00;;;;;;;19.28;80.52;101207.41;5025792;28;20037;-70
2023/07/20 06:50:14;;;;;;;9.85;5.07;;;;;;;19.34;80.38;101217.09;5026418;28;20025;-69
2023/07/20 06:52:41;;;;;;;7.75;3.90;;;;;;;19.14;81.32;101215.31;5023132;28;20445;-70
2023/07/20 06:55:07;;;;;;;7.07;3.90;;;;;;;19.40;78.96;101213.66;5019542;28;20136;-70
2023/07/20 06:57:32;;;;;;;8.35;4.60;;;;;;;19.52;78.58;101217.28;5027829;28;20054;-70
2023/07/20 06:59:58;;;;;;;5.90;3.78;;;;;;;19.87;77.42;101219.66;5024584;28;20033;-70
2023/07/20 07:02:23;;;;;;;6.75;4.00;;;;;;;20.44;75.93;101222.47;5024806;28;20038;-71
2023/07/20 07:04:48;;;;;;;5.25;3.55;;;;;;;20.63;73.64;101225.22;5025681;28;20506;-70
2023/07/20 07:07:15;;;;;;;6.68;2.90;;;;;;;20.38;75.76;101228.53;5027808;28;20037;-70
2023/07/20 07:09:41;;;;;;;7.55;4.47;;;;;;;20.09;75.26;101228.06;5028897;28;20044;-70
2023/07/20 07:12:07;;;;;;;5.85;4.00;;;;;;;19.84;77.46;101230.59;5024990;28;20037;-70
2023/07/20 07:14:32;;;;;;;10.30;4.18;;;;;;;19.62;78.45;101236.06;5023675;28;20029;-70
2023/07/20 07:16:58;;;;;;;10.20;4.05;;;;;;;19.31;79.56;101241.16;5024510;28;20033;-70
2023/07/20 07:19:23;;;;;;;7.07;3.80;;;;;;;19.06;80.94;101239.97;5026666;28;20041;-70
2023/07/20 07:21:49;;;;;;;6.43;3.90;;;;;;;19.37;78.76;101240.38;5008231;28;20060;-70
2023/07/20 07:24:14;;;;;;;4.38;3.13;;;;;;;19.68;76.95;101239.69;5025124;28;20033;-70
2023/07/20 07:26:40;;;;;;;6.70;3.20;;;;;;;20.54;73.65;101235.16;5027562;28;20515;-70
2023/07/20 07:29:05;;;;;;;6.30;2.40;;;;;;;21.24;70.38;101235.09;5028609;28;20029;-71
2023/07/20 07:31:34;;;;;;;3.50;2.40;;;;;;;21.39;68.24;101230.28;5022797;28;20037;-71
2023/07/20 07:33:59;;;;;;;3.47;2.42;;;;;;;21.75;65.92;101226.09;5025910;28;20034;-68
2023/07/20 07:36:25;;;;;;;7.38;3.25;;;;;;;21.09;67.03;101235.41;5024550;28;20466;-68
2023/07/20 07:38:50;;;;;;;4.43;3.15;;;;;;;21.38;67.54;101231.31;5026497;28;20038;-68
2023/07/20 07:41:16;;;;;;;7.13;3.42;;;;;;;21.81;67.00;101228.88;5025489;28;20033;-68
2023/07/20 07:43:41;;;;;;;4.75;3.72;;;;;;;22.62;64.44;101224.22;5011911;28;20037;-68
2023/07/20 07:46:07;;;;;;;3.42;2.60;;;;;;;22.88;62.26;101225.66;5025827;28;20034;-68
2023/07/20 07:48:32;;;;;;;3.33;2.10;;;;;;;23.32;60.02;101234.13;5024985;28;20037;-68
2023/07/20 07:50:58;;;;;;;6.00;2.40;;;;;;;23.25;59.19;101239.50;5023507;28;20041;-68
2023/07/20 07:53:25;;;;;;;3.22;1.70;;;;;;;22.62;61.14;101238.25;5009589;28;20038;-67
2023/07/20 07:55:51;;;;;;;6.47;1.17;;;;;;;22.27;61.10;101246.84;5024844;28;20029;-68
2023/07/20 07:58:17;;;;;;;3.17;0.98;;;;;;;22.90;58.78;101242.88;5026081;28;20484;-68
2023/07/20 08:00:44;;;;;;;2.03;1.30;;;;;;;23.35;56.59;101246.06;5024350;28;20072;-68
2023/07/20 08:03:09;;;;;;;1.80;1.10;;;;;;;23.47;56.56;101254.78;5007196;28;20165;-68
2023/07/20 08:05:35;;;;;;;1.80;1.17;;;;;;;23.86;56.50;101250.63;5027240;28;20570;-68
2023/07/20 08:08:04;;;;;;;2.92;1.48;;;;;;;23.93;54.70;101249.72;5024754;28;20041;-68
2023/07/20 08:10:30;;;;;;;1.58;1.10;;;;;;;24.33;54.12;101247.03;5028421;28;20168;-68
2023/07/20 08:12:55;;;;;;;2.35;1.38;;;;;;;24.41;53.08;101246.66;5036797;28;20491;-69
2023/07/20 08:15:21;;;;;;;1.67;1.10;;;;;;;24.24;52.52;101257.22;5022987;28;20043;-68
2023/07/20 08:17:48;;;;;;;1.88;1.00;;;;;;;24.14;53.30;101251.72;5027484;28;20041;-68
2023/07/20 08:20:16;;;;;;;1.23;1.05;;;;;;;24.63;54.50;101259.25;5026560;28;20132;-68
2023/07/20 08:22:42;;;;;;;6.28;2.70;;;;;;;23.87;55.49;101252.25;5026170;28;20106;-68
2023/07/20 08:25:08;;;;;;;1.52;0.90;;;;;;;23.08;57.81;101259.75;5023505;28;20025;-68
2023/07/20 08:27:34;;;;;;;1.88;0.90;;;;;;;22.48;61.15;101255.31;5027527;28;20045;-68
2023/07/20 08:29:59;;;;;;;2.85;0.90;;;;;;;21.90;61.45;101264.50;5023958;28;20029;-68
2023/07/20 08:32:25;;;;;;;1.83;0.68;;;;;;;21.70;63.62;101262.06;5022136;28;20051;-69
2023/07/20 08:34:51;;;;;;;3.60;1.25;;;;;;;21.61;62.43;101266.84;5023807;28;20041;-68
2023/07/20 08:37:16;;;;;;;0.95;0.80;;;;;;;22.46;61.02;101257.38;5004351;28;20045;-68
2023/07/20 08:39:42;;;;;;;2.03;0.88;;;;;;;23.51;57.02;101256.75;5023527;28;20423;-68
2023/07/20 08:42:10;;;;;;;1.73;0.90;;;;;;;24.05;54.49;101253.13;5017932;28;20124;-68
2023/07/20 08:44:38;;;;;;;3.35;1.00;;;;;;;24.35;54.05;101244.94;5022472;28;20056;-68
2023/07/20 08:47:05;;;;;;;2.63;0.70;;;;;;;24.66;52.19;101250.84;5032482;28;20091;-69
2023/07/20 08:49:32;;;;;;;1.20;0.80;;;;;;;24.82;50.91;101249.22;5023723;28;20053;-69
2023/07/20 08:51:59;;;;;;;3.03;1.00;;;;;;;24.98;50.13;101250.31;5023190;28;20041;-68
2023/07/20 08:54:29;;;;;;;1.67;0.93;;;;;;;25.03;48.59;101248.53;5023632;28;20068;-69
2023/07/20 08:56:57;;;;;;;1.23;0.90;;;;;;;24.86;49.45;101251.19;5020920;28;20123;-68
2023/07/20 08:59:24;;;;;;;2.28;0.85;;;;;;;25.00;48.55;101250.88;5020761;28;20079;-68
2023/07/20 09:01:52;;;;;;;2.40;0.90;;;;;;;25.14;49.17;101249.47;5039539;28;20057;-69
2023/07/20 09:04:17;;;;;;;1.17;0.70;;;;;;;25.76;48.02;101235.22;5023980;28;20037;-69
2023/07/20 09:06:43;;;;;;;0.77;0.70;;;;;;;25.36;48.79;101244.25;5019161;28;20396;-68
2023/07/20 09:09:08;;;;;;;1.70;1.00;;;;;;;23.85;51.41;101249.03;5024806;28;20438;-67
2023/07/20 09:11:34;;;;;;;2.05;1.00;;;;;;;23.00;55.34;101255.56;5037435;28;20069;-71
2023/07/20 09:14:07;;;;;;;1.85;1.00;;;;;;;22.62;55.80;101250.63;5021229;28;20050;-71
2023/07/20 09:16:32;;;;;;;1.05;0.77;;;;;;;22.02;55.91;101254.00;5036583;28;20037;-71
2023/07/20 09:18:58;;;;;;;5.22;1.75;;;;;;;21.85;56.67;101259.06;5038789;28;20052;-71
2023/07/20 09:21:30;;;;;;;2.30;0.77;;;;;;;22.85;53.81;101252.53;5000230;28;20041;-71
2023/07/20 09:23:59;;;;;;;2.80;1.17;;;;;;;23.87;49.81;101252.25;5022523;28;20048;-71
2023/07/20 09:26:24;;;;;;;2.60;0.75;;;;;;;24.67;47.49;101244.47;5022369;28;20138;-71
2023/07/20 09:28:52;;;;;;;0.60;0.50;;;;;;;24.97;46.34;101246.81;5023174;28;20025;-69
2023/07/20 09:31:19;;;;;;;0.88;0.50;;;;;;;25.45;46.48;101245.44;5021181;28;20523;-69
2023/07/20 09:33:46;;;;;;;0.70;0.50;;;;;;;25.13;46.66;101239.09;5020183;28;20066;-69
2023/07/20 09:36:12;;;;;;;0.85;0.50;;;;;;;25.17;47.68;101240.25;5024190;28;20033;-69
2023/07/20 09:38:38;;;;;;;1.45;0.40;;;;;;;24.45;47.64;101245.16;5019830;28;20640;-69
2023/07/20 09:41:07;;;;;;;1.63;0.32;;;;;;;24.53;49.28;101244.00;5017812;28;20034;-68
2023/07/20 09:43:34;;;;;;;0.60;0.40;;;;;;;24.62;48.73;101237.25;5021538;28;20036;-69
2023/07/20 09:46:00;;;;;;;0.63;0.55;;;;;;;25.21;48.27;101239.50;5020301;28;20044;-69
2023/07/20 09:48:28;;;;;;;0.60;0.40;;;;;;;25.57;46.73;101228.59;5016899;28;20094;-69
2023/07/20 09:50:55;;;;;;;0.73;0.50;;;;;;;25.13;47.39;101237.28;5020796;28;20033;-69
2023/07/20 09:53:20;;;;;;;1.60;0.52;;;;;;;24.20;46.39;101240.16;5024561;28;20033;-69
2023/07/20 09:55:47;;;;;;;0.50;0.40;;;;;;;24.53;46.09;101236.03;5023883;28;20103;-69
2023/07/20 09:58:14;;;;;;;1.30;0.50;;;;;;;25.25;46.45;101230.03;5027754;28;20033;-69
2023/07/20 10:00:51;;;;;;;1.13;0.50;;;;;;;25.79;46.60;101225.97;5008665;28;20095;-69
2023/07/20 10:03:20;;;;;;;1.60;0.50;;;;;;;25.73;43.66;101225.09;5023716;28;20033;-69
2023/07/20 10:05:54;;;;;;;1.10;0.63;;;;;;;25.78;43.52;101227.00;5007505;28;20636;-69
2023/07/20 10:08:24;;;;;;;1.98;0.70;;;;;;;25.58;44.25;101227.53;5021834;28;20029;-69
2023/07/20 10:10:50;;;;;;;1.05;0.73;;;;;;;25.33;44.99;101234.13;5017368;28;20033;-69
2023/07/20 10:13:27;;;;;;;0.88;0.70;;;;;;;24.99;47.06;101234.13;5024963;28;20045;-69
2023/07/20 10:16:05;;;;;;;2.15;0.70;;;;;;;24.65;45.93;101222.72;5023548;28;20416;-69
2023/07/20 10:18:54;;;;;;;0.73;0.60;;;;;;;25.00;46.39;101227.78;5022279;28;20648;-69
2023/07/20 10:21:22;;;;;;;1.38;0.80;;;;;;;24.95;46.38;101226.91;5022056;28;20042;-69
2023/07/20 10:23:48;;;;;;;0.90;0.60;;;;;;;25.44;46.49;101221.78;5025866;28;20025;-69
2023/07/20 10:26:14;;;;;;;1.10;0.55;;;;;;;25.64;45.79;101223.94;5022994;28;20029;-68
2023/07/20 10:28:40;;;;;;;2.10;0.73;;;;;;;25.76;45.76;101213.97;5026200;28;20500;-68
2023/07/20 10:31:09;;;;;;;5.40;0.75;;;;;;;25.94;44.68;101222.72;5005296;28;20042;-68
2023/07/20 10:33:35;;;;;;;2.80;1.17;;;;;;;25.84;42.89;101221.53;5026097;28;20431;-68
2023/07/20 10:36:03;;;;;;;1.77;0.70;;;;;;;25.68;44.68;101216.28;5006980;28;20117;-71
2023/07/20 10:38:51;;;;;;;1.27;0.60;;;;;;;26.00;43.89;101213.75;5039770;28;20037;-69
2023/07/20 10:41:24;;;;;;;0.95;0.70;;;;;;;25.76;43.45;101211.31;5024283;28;20049;-68
2023/07/20 10:43:50;;;;;;;;;;;;;;;25.58;43.75;101201.81;5006674;28;20613;-69
2023/07/20 10:46:34;;;;;;;1.77;0.63;;;;;;;24.85;45.39;101204.47;5009293;28;20008;-68
2023/07/20 10:49:02;;;;;;;1.55;0.70;;;;;;;24.49;45.75;101205.72;5020921;28;20026;-69
2023/07/20 10:51:28;;;;;;;1.10;0.70;;;;;;;24.09;45.60;101201.28;5027385;28;20040;-69
2023/07/20 10:53:58;;;;;;;2.25;0.60;;;;;;;24.16;45.49;101209.09;5024683;28;20041;-69
2023/07/20 10:56:27;;;;;;;3.60;0.70;;;;;;;23.95;46.47;101195.47;5026113;28;20073;-69
2023/07/20 10:58:58;;;;;;;0.93;0.60;;;;;;;24.06;46.93;101199.94;5026764;28;20167;-69
2023/07/20 11:01:30;;;;;;;1.23;0.70;;;;;;;24.05;47.12;101190.38;5027120;28;20041;-68
2023/07/20 11:04:00;;;;;;;1.38;0.82;;;;;;;24.19;45.94;101195.41;5025319;28;20033;-69
2023/07/20 11:06:25;;;;;;;1.13;0.60;;;;;;;24.60;45.97;101193.47;5026363;28;20041;-69
2023/07/20 11:09:15;;;;;;;0.95;0.60;;;;;;;25.21;44.66;101194.41;5027366;28;20033;-68
2023/07/20 11:11:46;;;;;;;1.17;0.50;;;;;;;25.78;44.75;101187.16;5023914;28;20049;-70
2023/07/20 11:14:23;;;;;;;1.52;0.68;;;;;;;25.94;43.00;101178.34;5024948;28;20556;-69
2023/07/20 11:16:51;;;;;;;0.73;0.60;;;;;;;25.64;41.40;101184.91;5020984;28;20037;-68
2023/07/20 11:19:26;;;;;;;0.70;0.50;;;;;;;25.71;42.51;101186.56;5028097;28;20059;-68